Centre Hospitalier Heliport

FR-0048 · Ille-et-Vilaine, Bretagna, Francia

Storia di METAR FR-0048 · Centre Hospitalier Heliport

Di seguito sono riportati i METAR degli ultimi giorni. Seleziona un anno per sfogliare i METAR più vecchi, dall'anno 2007 in poi.

13 luglio 2024

Tempo Codice Tempo meteorologico Temp. Vista Base nuvolosa Vento METAR/SPECI
14:00
M
19 °C 10 km+ 2.700 ft 020° 020° 7 kt METAR LFRD 131200Z AUTO 02007KT 320V070 9999 SCT022/// BKN027/// BKN082/// ///TCU 19/13 Q1015
13:30
V
17 °C 10 km+ 7.800 ft 030° 030° 7 kt METAR LFRD 131130Z AUTO 03007KT 9999 FEW025 SCT030 OVC078 17/13 Q1015
13:00
M
16 °C 10 km+ 2.100 ft 020° 020° 8 kt METAR LFRD 131100Z AUTO 02008KT 9999 BKN021/// BKN033/// OVC070/// ///CB 16/13 Q1015
12:30
V
18 °C 10 km+ 4.400 ft 010° 010° 4 kt METAR LFRD 131030Z AUTO 01004KT 280V070 9999 FEW022 SCT028 BKN044 18/13 Q1015
12:00
V
17 °C 10 km+ 4.600 ft 310° 310° 5 kt METAR LFRD 131000Z AUTO 31005KT 280V340 9999 FEW019 OVC046 17/12 Q1015
11:30
V
17 °C 10 km+ 4.100 ft Var Var 3 kt METAR LFRD 130930Z AUTO VRB03KT 9999 FEW034 OVC041 17/12 Q1015
11:00
V
17 °C 10 km+ 4.000 ft 320° 320° 5 kt METAR LFRD 130900Z AUTO 32005KT 280V360 9999 FEW018 SCT028 BKN040 17/13 Q1015
10:30
M
17 °C 10 km+ 1.400 ft 330° 330° 5 kt METAR LFRD 130830Z AUTO 33005KT 270V360 9999 SCT010 BKN014 BKN019 17/13 Q1015
10:00
M
15 °C 10 km+ 1.500 ft 240° 240° 4 kt METAR LFRD 130800Z AUTO 24004KT 210V290 9999 SCT009 OVC015 15/14 Q1016
09:30
I
14 °C 9 km 500 ft 280° 280° 5 kt METAR LFRD 130730Z AUTO 28005KT 240V300 9000 BKN005 OVC076 14/13 Q1016
09:00
L
14 °C 7 km 400 ft 260° 260° 5 kt METAR LFRD 130700Z AUTO 26005KT 7000 BKN004/// BKN029/// OVC068/// ///TCU 14/13 Q1016
08:30
M
14 °C 7 km 2.700 ft 250° 250° 4 kt METAR LFRD 130630Z AUTO 25004KT 7000 FEW005 BKN027 BKN032 14/13 Q1016
08:00
M
14 °C 9 km 2.400 ft 230° 230° 5 kt METAR LFRD 130600Z AUTO 23005KT 9000 -RA FEW017 BKN024 OVC033 14/13 Q1016
07:30
M
14 °C 10 km+ 1.400 ft 280° 280° 4 kt METAR LFRD 130530Z AUTO 28004KT 9999 BKN014 BKN021 OVC068 14/13 Q1016
07:00
V
14 °C 10 km+ 6.800 ft 280° 280° 3 kt METAR LFRD 130500Z AUTO 28003KT 9999 FEW016 SCT024 OVC068 14/13 Q1015 TEMPO 3000 BR VV///
06:30
M
14 °C 10 km+ 1.900 ft 290° 290° 4 kt METAR LFRD 130430Z AUTO 29004KT 9999 BKN019 BKN028 BKN058 14/13 Q1015 TEMPO 3000 BR VV///
06:00
M
14 °C 10 km+ 1.400 ft 330° 330° 3 kt METAR LFRD 130400Z AUTO 33003KT 9999 BKN014 OVC056 14/13 Q1015 TEMPO 0500 FG VV///
05:30
M
14 °C 10 km+ 2.300 ft 340° 340° 5 kt METAR LFRD 130330Z AUTO 34005KT 9999 FEW016 BKN023 BKN031 14/13 Q1015 TEMPO 0500 FG VV///
05:00
M
14 °C 10 km+ 1.400 ft 330° 330° 4 kt METAR LFRD 130300Z AUTO 33004KT 9999 BKN014/// BKN023/// OVC072/// //////TCU 14/13 Q1015 TEMPO 0500 FG VV///
04:30
M
14 °C 10 km+ 2.300 ft 320° 320° 6 kt METAR LFRD 130230Z AUTO 32006KT 9999 FEW011/// SCT017/// BKN023/// ///TCU 14/13 Q1015 TEMPO 0500 FG VV///
04:00
V
14 °C 10 km+ 6.800 ft 320° 320° 7 kt METAR LFRD 130200Z AUTO 32007KT 9999 SCT017/// BKN068/// ///CB 14/13 Q1016 TEMPO 0500 FG VV///
03:30
M
14 °C 10 km+ 1.400 ft 320° 320° 8 kt METAR LFRD 130130Z AUTO 32008KT 9999 BKN014/// BKN044/// //////CB 14/13 Q1016 TEMPO 0500 FG VV///
03:00
M
14 °C 10 km+ 1.200 ft 300° 300° 6 kt METAR LFRD 130100Z AUTO 30006KT 9999 BKN012 14/14 Q1016 TEMPO 0500 FG BKN012 BKN025TCU
02:30
V
14 °C 10 km+ - 310° 310° 6 kt METAR LFRD 130030Z AUTO 31006KT 9999 SCT014 14/13 Q1016 TEMPO 0500 FG BKN012 BKN025TCU
02:00
M
14 °C 10 km+ 1.300 ft 320° 320° 7 kt METAR LFRD 130000Z AUTO 32007KT 9999 BKN013 BKN019 14/13 Q1016 TEMPO 4000 SHRA BKN012 BKN025TCU
01:30
M
13 °C 10 km+ 1.200 ft 240° 240° 4 kt METAR LFRD 122330Z AUTO 24004KT 220V280 9999 BKN012 BKN036 BKN074 13/13 Q1016 TEMPO 4000 SHRA BKN012 BKN025TCU
01:00
V
13 °C 9 km 3.900 ft 250° 250° 4 kt METAR LFRD 122300Z AUTO 25004KT 9000 FEW010 SCT022 BKN039 13/13 Q1016 TEMPO 4000 SHRA BKN012 BKN025TCU
00:30
M
13 °C 10 km+ 2.000 ft 200° 200° 3 kt METAR LFRD 122230Z AUTO 20003KT 9999 SCT012 BKN020 13/12 Q1016 TEMPO 4000 SHRA BKN012 BKN025TCU
00:00
V
13 °C 10 km+ - 250° 250° 3 kt METAR LFRD 122200Z AUTO 25003KT 9999 FEW021 13/12 Q1017 TEMPO 4000 SHRA BKN012 BKN025TCU

12 luglio 2024

Tempo Codice Tempo meteorologico Temp. Vista Base nuvolosa Vento METAR/SPECI
23:30
M
14 °C 10 km+ 1.600 ft 310° 310° 5 kt METAR LFRD 122130Z AUTO 31005KT 9999 BKN016 BKN024 14/12 Q1017 TEMPO 4000 SHRA BKN012 BKN025TCU
23:00
M
14 °C 10 km+ 1.600 ft 310° 310° 6 kt METAR LFRD 122100Z AUTO 31006KT 9999 BKN016 14/12 Q1017 TEMPO 4000 SHRA BKN012 BKN025TCU
22:30
M
14 °C 10 km+ 1.500 ft 310° 310° 7 kt METAR LFRD 122030Z AUTO 31007KT 9999 BKN015 14/12 Q1017 TEMPO 4000 SHRA BKN012 BKN025TCU
22:00
V
14 °C 10 km+ - 300° 300° 6 kt METAR LFRD 122000Z AUTO 30006KT 9999 FEW016 14/12 Q1017 TEMPO 4000 SHRA BKN012 BKN025TCU
21:30
V
15 °C 10 km+ - 310° 310° 8 kt METAR LFRD 121930Z AUTO 31008KT 9999 FEW014 15/12 Q1017 TEMPO 4000 SHRA BKN012 BKN025TCU
21:00
V
16 °C 10 km+ 9.000 ft 310° 310° 10 kt METAR LFRD 121900Z AUTO 31010KT 9999 FEW016 BKN090 16/12 Q1016 TEMPO 4000 SHRA BKN012 BKN025TCU
20:30
V
17 °C 10 km+ - 310° 310° 9 kt METAR LFRD 121830Z AUTO 31009KT CAVOK 17/12 Q1016 TEMPO 4000 SHRA BKN012 BKN025TCU
20:00
V
17 °C 10 km+ 9.000 ft 320° 320° 7 kt METAR LFRD 121800Z AUTO 32007KT 280V340 9999 FEW020 OVC090 17/12 Q1016 TEMPO 4000 SHRA BKN012 BKN025TCU
19:30
V
16 °C 10 km+ 9.000 ft 320° 320° 9 kt METAR LFRD 121730Z AUTO 32009KT 290V350 9999 FEW017 SCT076 OVC090 16/13 Q1016 TEMPO 4000 SHRA BKN012 BKN025TCU
19:00
V
17 °C 10 km+ 8.000 ft 330° 330° 9 kt METAR LFRD 121700Z AUTO 33009KT 9999 FEW013/// OVC080/// ///TCU 17/13 Q1016 TEMPO 3000 SHRA BKN010 BKN020CB
18:30
V
17 °C 10 km+ 4.600 ft 310° 310° 8 kt METAR LFRD 121630Z AUTO 31008KT 9999 SCT013 BKN046 BKN064 17/13 Q1017 TEMPO 3000 SHRA BKN020CB
18:00
M
17 °C 10 km+ 1.400 ft 310° 310° 10 kt METAR LFRD 121600Z AUTO 31010KT 9999 BKN014/// BKN045/// BKN076/// ///TCU 17/14 Q1017 TEMPO 3000 SHRA BKN020CB
17:30
M
17 °C 10 km+ 1.600 ft 320° 320° 10 kt METAR LFRD 121530Z AUTO 32010KT 9999 BKN016 BKN025 OVC078 17/13 Q1017 TEMPO 3000 SHRA BKN020CB
17:00
V
18 °C 10 km+ 8.000 ft 330° 330° 9 kt METAR LFRD 121500Z AUTO 33009KT 300V360 9999 FEW018/// BKN080/// OVC120/// ///CB 18/13 Q1017 TEMPO 3000 SHRA
16:30
M
18 °C 10 km+ 1.800 ft 340° 340° 10 kt METAR LFRD 121430Z AUTO 34010KT 9999 BKN018/// BKN058/// BKN072/// ///CB 18/13 Q1017 TEMPO 3000 SHRA
16:00
M
18 °C 10 km+ 1.800 ft 330° 330° 10 kt METAR LFRD 121400Z AUTO 33010KT 310V010 9999 BKN018/// BKN072/// BKN120/// ///CB 18/13 Q1017 TEMPO 3000 SHRA
15:30
V
19 °C 10 km+ 12.000 ft 340° 340° 11 kt METAR LFRD 121330Z AUTO 34011KT 300V010 9999 FEW020/// BKN120/// ///CB 19/14 Q1017 TEMPO 3000 SHRA
15:00
V
19 °C 10 km+ - 350° 350° 12 kt METAR LFRD 121300Z AUTO 35012KT 9999 ///CB 19/12 Q1017 TEMPO 3000 SHRA
14:30
V
18 °C 10 km+ - 350° 350° 10 kt METAR LFRD 121230Z AUTO 35010KT CAVOK 18/12 Q1017 TEMPO 3000 SHRA BKN020CB
14:00
V
18 °C 10 km+ - 340° 340° 9 kt METAR LFRD 121200Z AUTO 34009KT 300V010 9999 FEW025 18/12 Q1017 TEMPO 3000 SHRA BKN020CB
13:30
V
18 °C 10 km+ - 340° 340° 10 kt METAR LFRD 121130Z AUTO 34010KT 310V010 9999 FEW022 18/12 Q1017 TEMPO 3000 SHRA BKN020CB
13:00
V
18 °C 10 km+ - 320° 320° 9 kt METAR LFRD 121100Z AUTO 32009KT 280V350 CAVOK 18/13 Q1017 TEMPO 3000 SHRA BKN020CB
12:30
V
17 °C 10 km+ - 310° 310° 9 kt METAR LFRD 121030Z AUTO 31009KT 9999 SCT019 SCT024 17/12 Q1017 TEMPO 3000 SHRA BKN020CB
12:00
V
17 °C 10 km+ - 310° 310° 9 kt METAR LFRD 121000Z AUTO 31009KT 290V350 9999 SCT020 17/13 Q1017 TEMPO 3000 SHRA BKN020CB
11:30
V
17 °C 10 km+ - 320° 320° 9 kt METAR LFRD 120930Z AUTO 32009KT 290V350 9999 FEW022 SCT043 17/13 Q1017 TEMPO 3000 SHRA BKN020CB
11:00
M
16 °C 10 km+ 1.900 ft 320° 320° 9 kt METAR LFRD 120900Z AUTO 32009KT 9999 BKN019 BKN024 BKN030 16/12 Q1017 TEMPO 3000 SHRA BKN020CB
10:30
M
16 °C 10 km+ 1.600 ft 300° 300° 10 kt METAR LFRD 120830Z AUTO 30010KT 9999 BKN016 BKN022 BKN038 16/13 Q1017 TEMPO 3000 SHRA BKN020CB
10:00
M
16 °C 10 km+ 1.700 ft 300° 300° 11 kt METAR LFRD 120800Z AUTO 30011KT 9999 OVC017 16/13 Q1017 TEMPO 3000 SHRA BKN020CB
09:30
M
16 °C 10 km+ 1.600 ft 310° 310° 10 kt METAR LFRD 120730Z AUTO 31010KT 9999 OVC016 16/13 Q1016 TEMPO 3000 SHRA BKN020CB
09:00
M
15 °C 10 km+ 1.600 ft 310° 310° 10 kt METAR LFRD 120700Z AUTO 31010KT 9999 BKN016 BKN021 15/13 Q1016 NOSIG
08:30
M
15 °C 10 km+ 1.700 ft 270° 270° 6 kt METAR LFRD 120630Z AUTO 27006KT 9999 BKN017 15/14 Q1016 NOSIG
08:00
M
14 °C 10 km+ 1.500 ft 260° 260° 5 kt METAR LFRD 120600Z AUTO 26005KT 9999 OVC015 14/12 Q1016 TEMPO BKN012 BECMG 32010KT
07:30
M
13 °C 10 km+ 1.300 ft 250° 250° 5 kt METAR LFRD 120530Z AUTO 25005KT 9999 OVC013 13/12 Q1016 BECMG 32010KT SCT020
07:00
M
13 °C 10 km+ 1.400 ft 300° 300° 6 kt METAR LFRD 120500Z AUTO 30006KT 9999 BKN014 BKN021 13/13 Q1016 TEMPO 3000 BR VV///
06:30
M
13 °C 10 km+ 1.500 ft 280° 280° 4 kt METAR LFRD 120430Z AUTO 28004KT 9999 BKN015 OVC024 13/12 Q1016 TEMPO 3000 BR VV///
06:00
M
12 °C 10 km+ 1.300 ft 250° 250° 3 kt METAR LFRD 120400Z AUTO 25003KT 9999 BKN013 BKN018 12/12 Q1016 TEMPO 0500 FG VV///
05:30
M
12 °C 10 km+ 1.200 ft 240° 240° 5 kt METAR LFRD 120330Z AUTO 24005KT 9999 BKN012 OVC017 12/12 Q1016 TEMPO 0500 FG VV/// BECMG 30010KT
05:00
M
13 °C 10 km+ 1.400 ft 270° 270° 5 kt METAR LFRD 120300Z AUTO 27005KT 230V330 9999 BKN014 BKN020 13/12 Q1016 TEMPO 0500 FG VV///
04:30
M
13 °C 10 km+ 2.000 ft 280° 280° 5 kt METAR LFRD 120230Z AUTO 28005KT 9999 SCT013 BKN020 BKN028 13/12 Q1016 TEMPO 0500 FG VV///
04:00
M
12 °C 10 km+ 1.800 ft 270° 270° 3 kt METAR LFRD 120200Z AUTO 27003KT 9999 BKN018 12/12 Q1016 TEMPO 0500 FG VV///
03:30
M
12 °C 10 km+ 1.600 ft 290° 290° 5 kt METAR LFRD 120130Z AUTO 29005KT 9999 BKN016 BKN021 BKN026 12/12 Q1016 TEMPO 0500 FG VV///
03:00
V
12 °C 10 km+ - 290° 290° 4 kt METAR LFRD 120100Z AUTO 29004KT 9999 SCT018 12/11 Q1017 TEMPO 3000 BR BKN010
02:30
V
13 °C 10 km+ 24.000 ft 310° 310° 5 kt METAR LFRD 120030Z AUTO 31005KT 9999 SCT017 BKN240 13/12 Q1017 TEMPO 3000 BR BKN010
02:00
V
13 °C 10 km+ - 320° 320° 5 kt METAR LFRD 120000Z AUTO 32005KT 9999 SCT016 13/12 Q1017 TEMPO 3000 BR BKN010
01:30
V
13 °C 10 km+ - 330° 330° 7 kt METAR LFRD 112330Z AUTO 33007KT 9999 SCT015 13/12 Q1017 TEMPO 3000 BR BKN008
01:00
V
14 °C 10 km+ - 330° 330° 7 kt METAR LFRD 112300Z AUTO 33007KT CAVOK 14/12 Q1017 TEMPO 3000 BR BKN012 BKN030CB
00:30
V
14 °C 10 km+ 12.000 ft 330° 330° 7 kt METAR LFRD 112230Z AUTO 33007KT 9999 FEW013 BKN120 14/13 Q1017 TEMPO 3000 BR BKN012 BKN030CB
00:00
V
14 °C 10 km+ 14.000 ft 320° 320° 5 kt METAR LFRD 112200Z AUTO 32005KT 9999 FEW013 SCT120 BKN140 14/12 Q1017 TEMPO 3000 SHRA BKN012 BKN030CB

11 luglio 2024

Tempo Codice Tempo meteorologico Temp. Vista Base nuvolosa Vento METAR/SPECI
23:30
V
15 °C 10 km+ 13.000 ft 340° 340° 7 kt METAR LFRD 112130Z AUTO 34007KT 9999 FEW013 SCT110 OVC130 15/13 Q1017 TEMPO 3000 SHRA BKN012 BKN030CB
23:00
V
15 °C 10 km+ 13.000 ft 360° 360° 6 kt METAR LFRD 112100Z AUTO 36006KT 9999 FEW015/// BKN130/// ///CB 15/14 Q1017 TEMPO VRB15G30KT 3000 SHRA BKN012 BKN030CB
22:30
V
15 °C 10 km+ 3.300 ft 360° 360° 6 kt METAR LFRD 112030Z AUTO 36006KT 9999 -RA SCT011/// BKN033/// BKN074/// ///CB 15/14 Q1018 TEMPO VRB15G30KT 3000 SHRA BKN012 BKN030CB
22:00
V
15 °C 10 km+ 9.200 ft 340° 340° 3 kt METAR LFRD 112000Z AUTO 34003KT 320V020 9999 -RA FEW034/// SCT074/// OVC092/// ///CB 15/13 Q1017 TEMPO VRB15G30KT 1200 TSRA BKN012 BKN030CB
21:30
V
15 °C 10 km+ - 350° 350° 4 kt METAR LFRD 111930Z AUTO 35004KT 9999 -RA ///CB 15/13 Q1017 TEMPO VRB15G30KT 1200 TSRA BKN012 BKN030CB
21:00
V
15 °C 10 km+ 9.600 ft 360° 360° 3 kt METAR LFRD 111900Z AUTO 36003KT 9999 -RA FEW042/// OVC096/// //////CB 15/14 Q1017 TEMPO VRB15G30KT 1200 TSRA BKN012 BKN030CB
20:30
V
15 °C 10 km+ 5.200 ft 020° 020° 6 kt METAR LFRD 111830Z AUTO 02006KT 9999 -RA FEW040/// BKN052/// BKN068/// //////CB 15/14 Q1017 TEMPO VRB15G30KT 1200 TSRA BKN012 BKN030CB
20:00
V
15 °C 9 km 4.800 ft 360° 360° 8 kt METAR LFRD 111800Z AUTO 36008KT 9000 -RA FEW012/// SCT037/// BKN048/// ///CB 15/13 Q1018 TEMPO VRB15G30KT 1200 TSRA BKN012 BKN030CB
19:30
V
16 °C 10 km+ 7.600 ft 340° 340° 9 kt METAR LFRD 111730Z AUTO 34009KT 9999 -RA SCT046/// SCT062/// BKN076/// //////CB 16/14 Q1018 TEMPO VRB15G30KT 1200 TSRA BKN012 BKN030CB
19:00
V
16 °C 10 km+ 7.400 ft 330° 330° 6 kt METAR LFRD 111700Z AUTO 33006KT 9999 -RA FEW028/// OVC074/// ///CB 16/14 Q1018 TEMPO VRB15G30KT 1200 TSRA BKN012 BKN030CB
18:30
V
16 °C 10 km+ - 360° 360° 5 kt METAR LFRD 111630Z AUTO 36005KT 9999 -RA FEW036/// //////CB 16/14 Q1018 TEMPO VRB15G30KT 1200 TSRA BKN012 BKN030CB
18:00
V
16 °C 10 km+ - 350° 350° 7 kt METAR LFRD 111600Z AUTO 35007KT 9999 -RA FEW034/// ///CB 16/14 Q1018 TEMPO VRB15G30KT 1200 TSRA BKN012 BKN030CB
17:30
V
16 °C 10 km+ - 350° 350° 10 kt METAR LFRD 111530Z AUTO 35010KT 9999 -RA //////CB 16/14 Q1018 TEMPO VRB15G30KT 1200 TSRA BKN012 BKN030CB
17:00
V
16 °C 10 km+ - 340° 340° 8 kt METAR LFRD 111500Z AUTO 34008KT 9999 ///TCU 16/13 Q1018 TEMPO VRB15G30KT 1200 TSRA BKN012 BKN030CB
16:30
V
17 °C 10 km+ 8.000 ft 340° 340° 8 kt METAR LFRD 111430Z AUTO 34008KT 9999 -RA FEW035/// OVC080/// ///TCU 17/14 Q1018 TEMPO VRB15G30KT 1200 TSRA BKN012 BKN030CB
16:00
V
17 °C 10 km+ 7.800 ft 340° 340° 9 kt METAR LFRD 111400Z AUTO 34009KT 9999 FEW014 OVC078 17/14 Q1019 TEMPO VRB15G30KT 1200 TSRA BKN012 BKN030CB
15:30
V
17 °C 10 km+ - 360° 360° 9 kt METAR LFRD 111330Z AUTO 36009KT CAVOK 17/13 Q1019 TEMPO VRB15G30KT 1200 TSRA BKN012 BKN030CB
15:00
V
17 °C 10 km+ - 360° 360° 6 kt METAR LFRD 111300Z AUTO 36006KT 330V030 CAVOK 17/13 Q1019 TEMPO 3000 SHRA BKN012 BKN030CB
14:30
V
18 °C 10 km+ 9.000 ft 360° 360° 9 kt METAR LFRD 111230Z AUTO 36009KT 9999 FEW032/// BKN090/// //////TCU 18/12 Q1018 TEMPO 3000 SHRA BKN012 BKN030CB
14:00
V
18 °C 10 km+ 9.000 ft 360° 360° 9 kt METAR LFRD 111200Z AUTO 36009KT 9999 FEW028/// SCT045/// BKN090/// ///TCU 18/12 Q1019 TEMPO 3000 SHRA BKN012 BKN030CB
13:30
V
18 °C 10 km+ 9.000 ft 010° 010° 7 kt METAR LFRD 111130Z AUTO 01007KT 9999 -RA FEW026/// SCT058/// BKN090/// ///TCU 18/13 Q1019 TEMPO 3000 SHRA BKN012 BKN030CB
13:00
V
18 °C 10 km+ - 010° 010° 7 kt METAR LFRD 111100Z AUTO 01007KT 330V060 9999 //////TCU 18/13 Q1019 BECMG SCT020
12:30
M
18 °C 10 km+ 2.100 ft 360° 360° 7 kt METAR LFRD 111030Z AUTO 36007KT 310V040 9999 BKN021/// BKN120/// BKN150/// //////TCU 18/13 Q1019 BECMG SCT020
11:30
M
18 °C 10 km+ 2.100 ft 020° 020° 5 kt METAR LFRD 110930Z AUTO 02005KT 340V070 9999 BKN021 BKN130 BKN160 18/13 Q1019 NOSIG
11:00
M
18 °C 10 km+ 2.800 ft 030° 030° 6 kt METAR LFRD 110900Z AUTO 03006KT 9999 SCT022 BKN028 BKN190 18/13 Q1019 NOSIG
10:30
M
18 °C 10 km+ 2.500 ft 040° 040° 4 kt METAR LFRD 110830Z AUTO 04004KT 350V090 9999 SCT017 BKN025 BKN200 18/13 Q1019 NOSIG
10:00
M
17 °C 10 km+ 1.600 ft 330° 330° 3 kt METAR LFRD 110800Z AUTO 33003KT 250V030 9999 FEW011 BKN016 17/13 Q1020 NOSIG
09:30
V
16 °C 10 km+ - 360° 360° 0 kt METAR LFRD 110730Z AUTO 00000KT CAVOK 16/15 Q1020 NOSIG
09:00
V
15 °C 10 km+ - Var Var 1 kt METAR LFRD 110700Z AUTO VRB01KT CAVOK 15/14 Q1019 NOSIG
08:30
V
14 °C 10 km+ - 210° 210° 2 kt METAR LFRD 110630Z AUTO 21002KT CAVOK 14/14 Q1019 NOSIG
08:00
V
14 °C 10 km+ - Var Var 2 kt METAR LFRD 110600Z AUTO VRB02KT CAVOK 14/13 Q1019 TEMPO 3000 BR
Segnala modifiche